Lucama, North Carolina
Current Conditions -  °F | °C
As of 12:35 PM on Tuesday 21 Oct 2014 (Local Time) from KGWW Reporting Station
Clear Clear  
Wind Chill: 71°   Ceiling: Unl
Heat Index: 71°   Visibility: 10mi
Dew Point: 52°   Wind: 8mph
Humidity: 52%   Direction: 290°WNW
Pressure: 29.9"   Gusts: NA
Location:  35.65°N, 78.01°W
Report Text: KGWW 211635Z AUTO 29007KT 10SM CLR 22/11 A2990 RMK AO2 T02160113
Loading
Personal Weather Stations






























Interactive Weather Map
Tropical Storm Tracking
New forecast layout! Learn more

10-Day Weather Forecast

Advertisements
Track Severe Weather on mobile